sensor_id;sensor_type;location;lat;lon;timestamp;temperature;humidity
76785;SHT30;66893;44.316;0.092;2023-07-31T00:02:16;27.06;46.15
76785;SHT30;66893;44.316;0.092;2023-07-31T00:04:42;27.04;46.14
76785;SHT30;66893;44.316;0.092;2023-07-31T00:07:07;27.03;46.20
76785;SHT30;66893;44.316;0.092;2023-07-31T00:09:33;27.01;46.14
76785;SHT30;66893;44.316;0.092;2023-07-31T00:11:59;26.97;46.14
76785;SHT30;66893;44.316;0.092;2023-07-31T00:14:25;26.96;46.30
76785;SHT30;66893;44.316;0.092;2023-07-31T00:16:50;26.96;46.21
76785;SHT30;66893;44.316;0.092;2023-07-31T00:19:16;26.90;46.24
76785;SHT30;66893;44.316;0.092;2023-07-31T00:21:41;26.90;46.18
76785;SHT30;66893;44.316;0.092;2023-07-31T00:24:06;26.89;46.21
76785;SHT30;66893;44.316;0.092;2023-07-31T00:26:32;26.87;46.23
76785;SHT30;66893;44.316;0.092;2023-07-31T00:28:57;26.83;46.35
76785;SHT30;66893;44.316;0.092;2023-07-31T00:31:23;26.79;46.22
76785;SHT30;66893;44.316;0.092;2023-07-31T00:33:48;26.78;46.30
76785;SHT30;66893;44.316;0.092;2023-07-31T00:36:14;26.78;46.30
76785;SHT30;66893;44.316;0.092;2023-07-31T00:38:39;26.75;46.40
76785;SHT30;66893;44.316;0.092;2023-07-31T00:41:05;26.71;46.43
76785;SHT30;66893;44.316;0.092;2023-07-31T00:43:30;26.69;46.33
76785;SHT30;66893;44.316;0.092;2023-07-31T00:45:55;26.65;46.38
76785;SHT30;66893;44.316;0.092;2023-07-31T00:48:21;26.65;46.32
76785;SHT30;66893;44.316;0.092;2023-07-31T00:50:47;26.60;46.37
76785;SHT30;66893;44.316;0.092;2023-07-31T00:53:13;26.59;46.32
76785;SHT30;66893;44.316;0.092;2023-07-31T00:55:39;26.57;46.42
76785;SHT30;66893;44.316;0.092;2023-07-31T00:58:04;26.56;46.40
76785;SHT30;66893;44.316;0.092;2023-07-31T01:00:30;26.52;46.47
76785;SHT30;66893;44.316;0.092;2023-07-31T01:02:55;26.49;46.41
76785;SHT30;66893;44.316;0.092;2023-07-31T01:05:29;26.46;46.41
76785;SHT30;66893;44.316;0.092;2023-07-31T01:10:50;26.42;46.46
76785;SHT30;66893;44.316;0.092;2023-07-31T01:13:21;26.39;46.56
76785;SHT30;66893;44.316;0.092;2023-07-31T01:15:46;26.36;46.53
76785;SHT30;66893;44.316;0.092;2023-07-31T01:18:12;26.34;46.43
76785;SHT30;66893;44.316;0.092;2023-07-31T01:20:37;26.34;46.44
76785;SHT30;66893;44.316;0.092;2023-07-31T01:23:27;26.31;46.40
76785;SHT30;66893;44.316;0.092;2023-07-31T01:26:19;26.27;46.50
76785;SHT30;66893;44.316;0.092;2023-07-31T01:28:50;26.25;46.45
76785;SHT30;66893;44.316;0.092;2023-07-31T01:31:25;26.24;46.52
76785;SHT30;66893;44.316;0.092;2023-07-31T01:33:53;26.21;46.45
76785;SHT30;66893;44.316;0.092;2023-07-31T01:36:20;26.17;46.55
76785;SHT30;66893;44.316;0.092;2023-07-31T01:38:45;26.17;46.53
76785;SHT30;66893;44.316;0.092;2023-07-31T01:41:10;26.16;46.48
76785;SHT30;66893;44.316;0.092;2023-07-31T01:43:36;26.13;46.50
76785;SHT30;66893;44.316;0.092;2023-07-31T01:46:01;26.10;46.48
76785;SHT30;66893;44.316;0.092;2023-07-31T01:48:27;26.07;46.49
76785;SHT30;66893;44.316;0.092;2023-07-31T01:50:52;26.07;46.50
76785;SHT30;66893;44.316;0.092;2023-07-31T01:53:18;26.02;46.50
76785;SHT30;66893;44.316;0.092;2023-07-31T01:55:43;26.02;46.46
76785;SHT30;66893;44.316;0.092;2023-07-31T01:58:09;26.00;46.52
76785;SHT30;66893;44.316;0.092;2023-07-31T02:00:34;25.98;46.47
76785;SHT30;66893;44.316;0.092;2023-07-31T02:03:00;25.94;46.56
76785;SHT30;66893;44.316;0.092;2023-07-31T02:05:25;25.96;46.47
76785;SHT30;66893;44.316;0.092;2023-07-31T02:07:51;25.94;46.49
76785;SHT30;66893;44.316;0.092;2023-07-31T02:10:16;25.91;46.52
76785;SHT30;66893;44.316;0.092;2023-07-31T02:12:42;25.89;46.53
76785;SHT30;66893;44.316;0.092;2023-07-31T02:15:07;25.89;46.49
76785;SHT30;66893;44.316;0.092;2023-07-31T02:17:33;25.86;46.51
76785;SHT30;66893;44.316;0.092;2023-07-31T02:19:59;25.81;46.48
76785;SHT30;66893;44.316;0.092;2023-07-31T02:22:25;25.77;46.55
76785;SHT30;66893;44.316;0.092;2023-07-31T02:24:50;25.76;46.53
76785;SHT30;66893;44.316;0.092;2023-07-31T02:27:15;25.74;46.54
76785;SHT30;66893;44.316;0.092;2023-07-31T02:29:41;25.74;46.54
76785;SHT30;66893;44.316;0.092;2023-07-31T02:32:06;25.72;46.62
76785;SHT30;66893;44.316;0.092;2023-07-31T02:34:32;25.69;46.58
76785;SHT30;66893;44.316;0.092;2023-07-31T02:36:57;25.66;46.62
76785;SHT30;66893;44.316;0.092;2023-07-31T02:39:23;25.65;46.64
76785;SHT30;66893;44.316;0.092;2023-07-31T02:41:48;25.61;46.66
76785;SHT30;66893;44.316;0.092;2023-07-31T02:44:13;25.61;46.66
76785;SHT30;66893;44.316;0.092;2023-07-31T02:46:40;25.59;46.63
76785;SHT30;66893;44.316;0.092;2023-07-31T02:49:05;25.56;46.68
76785;SHT30;66893;44.316;0.092;2023-07-31T02:51:31;25.55;46.66
76785;SHT30;66893;44.316;0.092;2023-07-31T02:53:56;25.53;46.69
76785;SHT30;66893;44.316;0.092;2023-07-31T02:56:22;25.49;46.70
76785;SHT30;66893;44.316;0.092;2023-07-31T02:58:47;25.46;46.69
76785;SHT30;66893;44.316;0.092;2023-07-31T03:01:13;25.46;46.75
76785;SHT30;66893;44.316;0.092;2023-07-31T03:03:38;25.42;46.77
76785;SHT30;66893;44.316;0.092;2023-07-31T03:06:04;25.42;46.78
76785;SHT30;66893;44.316;0.092;2023-07-31T03:08:29;25.42;46.78
76785;SHT30;66893;44.316;0.092;2023-07-31T03:10:56;25.34;46.79
76785;SHT30;66893;44.316;0.092;2023-07-31T03:13:22;25.35;46.82
76785;SHT30;66893;44.316;0.092;2023-07-31T03:15:47;25.34;46.81
76785;SHT30;66893;44.316;0.092;2023-07-31T03:18:12;25.32;46.83
76785;SHT30;66893;44.316;0.092;2023-07-31T03:20:42;25.26;46.87
76785;SHT30;66893;44.316;0.092;2023-07-31T03:23:08;25.29;46.89
76785;SHT30;66893;44.316;0.092;2023-07-31T03:25:33;25.26;46.86
76785;SHT30;66893;44.316;0.092;2023-07-31T03:27:58;25.25;46.86
76785;SHT30;66893;44.316;0.092;2023-07-31T03:30:24;25.19;46.92
76785;SHT30;66893;44.316;0.092;2023-07-31T03:32:49;25.17;46.91
76785;SHT30;66893;44.316;0.092;2023-07-31T03:35:15;25.17;46.94
76785;SHT30;66893;44.316;0.092;2023-07-31T03:37:40;25.11;46.98
76785;SHT30;66893;44.316;0.092;2023-07-31T03:40:06;25.11;46.97
76785;SHT30;66893;44.316;0.092;2023-07-31T03:42:32;25.10;46.97
76785;SHT30;66893;44.316;0.092;2023-07-31T03:44:57;25.08;47.04
76785;SHT30;66893;44.316;0.092;2023-07-31T03:47:23;25.06;47.05
76785;SHT30;66893;44.316;0.092;2023-07-31T03:49:48;25.06;47.00
76785;SHT30;66893;44.316;0.092;2023-07-31T03:52:14;25.04;46.96
76785;SHT30;66893;44.316;0.092;2023-07-31T03:54:39;25.03;47.03
76785;SHT30;66893;44.316;0.092;2023-07-31T03:57:05;24.98;47.01
76785;SHT30;66893;44.316;0.092;2023-07-31T03:59:30;24.95;46.98
76785;SHT30;66893;44.316;0.092;2023-07-31T04:01:56;24.95;47.02
76785;SHT30;66893;44.316;0.092;2023-07-31T04:04:21;24.94;47.02
76785;SHT30;66893;44.316;0.092;2023-07-31T04:06:46;24.91;47.04
76785;SHT30;66893;44.316;0.092;2023-07-31T04:09:12;24.90;47.04
76785;SHT30;66893;44.316;0.092;2023-07-31T04:11:37;24.87;47.04
76785;SHT30;66893;44.316;0.092;2023-07-31T04:14:04;24.86;47.02
76785;SHT30;66893;44.316;0.092;2023-07-31T04:16:30;24.84;47.07
76785;SHT30;66893;44.316;0.092;2023-07-31T04:18:55;24.81;47.10
76785;SHT30;66893;44.316;0.092;2023-07-31T04:21:20;24.81;47.08
76785;SHT30;66893;44.316;0.092;2023-07-31T04:23:46;24.79;47.09
76785;SHT30;66893;44.316;0.092;2023-07-31T04:26:11;24.76;47.08
76785;SHT30;66893;44.316;0.092;2023-07-31T04:28:37;24.74;47.11
76785;SHT30;66893;44.316;0.092;2023-07-31T04:31:03;24.73;47.07
76785;SHT30;66893;44.316;0.092;2023-07-31T04:33:28;24.70;47.10
76785;SHT30;66893;44.316;0.092;2023-07-31T04:35:54;24.69;47.08
76785;SHT30;66893;44.316;0.092;2023-07-31T04:38:21;24.72;47.10
76785;SHT30;66893;44.316;0.092;2023-07-31T04:40:47;24.66;47.17
76785;SHT30;66893;44.316;0.092;2023-07-31T04:43:12;24.63;47.16
76785;SHT30;66893;44.316;0.092;2023-07-31T04:45:38;24.63;47.21
76785;SHT30;66893;44.316;0.092;2023-07-31T04:48:03;24.63;47.19
76785;SHT30;66893;44.316;0.092;2023-07-31T04:50:29;24.59;47.19
76785;SHT30;66893;44.316;0.092;2023-07-31T04:52:55;24.59;47.22
76785;SHT30;66893;44.316;0.092;2023-07-31T04:55:21;24.57;47.19
76785;SHT30;66893;44.316;0.092;2023-07-31T04:57:46;24.56;47.21
76785;SHT30;66893;44.316;0.092;2023-07-31T05:00:12;24.56;47.24
76785;SHT30;66893;44.316;0.092;2023-07-31T05:02:37;24.55;47.20
76785;SHT30;66893;44.316;0.092;2023-07-31T05:05:03;24.51;47.22
76785;SHT30;66893;44.316;0.092;2023-07-31T05:07:28;24.52;47.26
76785;SHT30;66893;44.316;0.092;2023-07-31T05:09:54;24.49;47.23
76785;SHT30;66893;44.316;0.092;2023-07-31T05:12:19;24.51;47.29
76785;SHT30;66893;44.316;0.092;2023-07-31T05:14:45;24.45;47.25
76785;SHT30;66893;44.316;0.092;2023-07-31T05:17:10;24.45;47.22
76785;SHT30;66893;44.316;0.092;2023-07-31T05:19:36;24.43;47.24
76785;SHT30;66893;44.316;0.092;2023-07-31T05:22:01;24.43;47.21
76785;SHT30;66893;44.316;0.092;2023-07-31T05:24:27;24.40;47.21
76785;SHT30;66893;44.316;0.092;2023-07-31T05:26:52;24.42;47.19
76785;SHT30;66893;44.316;0.092;2023-07-31T05:29:17;24.36;47.22
76785;SHT30;66893;44.316;0.092;2023-07-31T05:31:43;24.40;47.21
76785;SHT30;66893;44.316;0.092;2023-07-31T05:34:08;24.37;47.12
76785;SHT30;66893;44.316;0.092;2023-07-31T05:36:34;24.36;47.14
76785;SHT30;66893;44.316;0.092;2023-07-31T05:39:00;24.36;47.12
76785;SHT30;66893;44.316;0.092;2023-07-31T05:41:31;24.35;47.17
76785;SHT30;66893;44.316;0.092;2023-07-31T05:43:56;24.32;47.14
76785;SHT30;66893;44.316;0.092;2023-07-31T05:46:22;24.35;47.16
76785;SHT30;66893;44.316;0.092;2023-07-31T05:48:47;24.32;47.16
76785;SHT30;66893;44.316;0.092;2023-07-31T05:51:13;24.32;47.18
76785;SHT30;66893;44.316;0.092;2023-07-31T05:53:38;24.30;47.18
76785;SHT30;66893;44.316;0.092;2023-07-31T05:56:06;24.30;47.16
76785;SHT30;66893;44.316;0.092;2023-07-31T05:58:31;24.32;47.15
76785;SHT30;66893;44.316;0.092;2023-07-31T06:00:56;24.30;47.17
76785;SHT30;66893;44.316;0.092;2023-07-31T06:03:22;24.32;47.17
76785;SHT30;66893;44.316;0.092;2023-07-31T06:05:47;24.29;47.21
76785;SHT30;66893;44.316;0.092;2023-07-31T06:08:13;24.26;47.22
76785;SHT30;66893;44.316;0.092;2023-07-31T06:10:38;24.28;47.19
76785;SHT30;66893;44.316;0.092;2023-07-31T06:13:04;24.24;47.09
76785;SHT30;66893;44.316;0.092;2023-07-31T06:15:29;24.00;47.09
76785;SHT30;66893;44.316;0.092;2023-07-31T06:17:55;23.71;47.01
76785;SHT30;66893;44.316;0.092;2023-07-31T06:20:21;23.36;47.31
76785;SHT30;66893;44.316;0.092;2023-07-31T06:22:46;23.09;47.63
76785;SHT30;66893;44.316;0.092;2023-07-31T06:25:12;22.83;47.88
76785;SHT30;66893;44.316;0.092;2023-07-31T06:27:37;22.60;48.14
76785;SHT30;66893;44.316;0.092;2023-07-31T06:30:03;22.37;48.40
76785;SHT30;66893;44.316;0.092;2023-07-31T06:32:28;22.20;48.66
76785;SHT30;66893;44.316;0.092;2023-07-31T06:34:54;22.08;48.91
76785;SHT30;66893;44.316;0.092;2023-07-31T06:37:19;21.94;49.52
76785;SHT30;66893;44.316;0.092;2023-07-31T06:39:45;21.82;49.54
76785;SHT30;66893;44.316;0.092;2023-07-31T06:42:10;21.74;49.81
76785;SHT30;66893;44.316;0.092;2023-07-31T06:44:35;21.64;50.03
76785;SHT30;66893;44.316;0.092;2023-07-31T06:47:01;21.58;50.28
76785;SHT30;66893;44.316;0.092;2023-07-31T06:49:27;21.54;50.39
76785;SHT30;66893;44.316;0.092;2023-07-31T06:51:52;21.51;50.58
76785;SHT30;66893;44.316;0.092;2023-07-31T06:54:17;21.47;51.04
76785;SHT30;66893;44.316;0.092;2023-07-31T06:56:43;21.44;51.06
76785;SHT30;66893;44.316;0.092;2023-07-31T06:59:08;21.43;51.14
76785;SHT30;66893;44.316;0.092;2023-07-31T07:01:34;21.44;51.71
76785;SHT30;66893;44.316;0.092;2023-07-31T07:03:59;21.46;51.55
76785;SHT30;66893;44.316;0.092;2023-07-31T07:06:25;21.50;51.82
76785;SHT30;66893;44.316;0.092;2023-07-31T07:08:50;21.51;52.22
76785;SHT30;66893;44.316;0.092;2023-07-31T07:11:15;21.54;52.00
76785;SHT30;66893;44.316;0.092;2023-07-31T07:13:41;21.57;52.47
76785;SHT30;66893;44.316;0.092;2023-07-31T07:16:06;21.60;52.24
76785;SHT30;66893;44.316;0.092;2023-07-31T07:18:32;21.64;52.68
76785;SHT30;66893;44.316;0.092;2023-07-31T07:20:57;21.70;52.75
76785;SHT30;66893;44.316;0.092;2023-07-31T07:23:23;21.73;53.11
76785;SHT30;66893;44.316;0.092;2023-07-31T07:25:49;21.77;53.19
76785;SHT30;66893;44.316;0.092;2023-07-31T07:28:14;21.82;53.51
76785;SHT30;66893;44.316;0.092;2023-07-31T07:30:40;21.87;53.24
76785;SHT30;66893;44.316;0.092;2023-07-31T07:33:05;21.89;53.62
76785;SHT30;66893;44.316;0.092;2023-07-31T07:35:34;21.95;53.66
76785;SHT30;66893;44.316;0.092;2023-07-31T07:38:00;22.02;53.59
76785;SHT30;66893;44.316;0.092;2023-07-31T07:40:26;22.09;54.03
76785;SHT30;66893;44.316;0.092;2023-07-31T07:42:51;22.15;54.21
76785;SHT30;66893;44.316;0.092;2023-07-31T07:45:17;22.22;53.37
76785;SHT30;66893;44.316;0.092;2023-07-31T07:47:42;22.28;54.04
76785;SHT30;66893;44.316;0.092;2023-07-31T07:50:08;22.28;54.42
76785;SHT30;66893;44.316;0.092;2023-07-31T07:52:34;22.32;54.08
76785;SHT30;66893;44.316;0.092;2023-07-31T07:54:59;22.37;54.47
76785;SHT30;66893;44.316;0.092;2023-07-31T07:57:25;22.44;54.34
76785;SHT30;66893;44.316;0.092;2023-07-31T07:59:51;22.52;54.18
76785;SHT30;66893;44.316;0.092;2023-07-31T08:02:16;22.56;54.01
76785;SHT30;66893;44.316;0.092;2023-07-31T08:04:42;22.57;54.38
76785;SHT30;66893;44.316;0.092;2023-07-31T08:07:07;22.64;54.55
76785;SHT30;66893;44.316;0.092;2023-07-31T08:09:33;22.68;54.48
76785;SHT30;66893;44.316;0.092;2023-07-31T08:11:58;22.74;54.65
76785;SHT30;66893;44.316;0.092;2023-07-31T08:14:28;22.80;54.52
76785;SHT30;66893;44.316;0.092;2023-07-31T08:16:53;22.92;54.49
76785;SHT30;66893;44.316;0.092;2023-07-31T08:19:19;23.01;54.49
76785;SHT30;66893;44.316;0.092;2023-07-31T08:21:44;23.09;54.29
76785;SHT30;66893;44.316;0.092;2023-07-31T08:24:09;23.16;54.42
76785;SHT30;66893;44.316;0.092;2023-07-31T08:26:35;23.26;54.11
76785;SHT30;66893;44.316;0.092;2023-07-31T08:29:00;23.29;54.17
76785;SHT30;66893;44.316;0.092;2023-07-31T08:31:26;23.36;54.15
76785;SHT30;66893;44.316;0.092;2023-07-31T08:33:52;23.47;54.06
76785;SHT30;66893;44.316;0.092;2023-07-31T08:36:17;23.53;53.98
76785;SHT30;66893;44.316;0.092;2023-07-31T08:38:45;23.60;53.97
76785;SHT30;66893;44.316;0.092;2023-07-31T08:41:10;23.70;53.94
76785;SHT30;66893;44.316;0.092;2023-07-31T08:43:37;23.77;53.79
76785;SHT30;66893;44.316;0.092;2023-07-31T08:46:03;23.85;53.72
76785;SHT30;66893;44.316;0.092;2023-07-31T08:48:29;23.93;53.56
76785;SHT30;66893;44.316;0.092;2023-07-31T08:50:56;24.00;53.45
76785;SHT30;66893;44.316;0.092;2023-07-31T08:53:21;24.07;53.39
76785;SHT30;66893;44.316;0.092;2023-07-31T08:55:48;24.12;53.33
76785;SHT30;66893;44.316;0.092;2023-07-31T08:58:14;24.24;53.32
76785;SHT30;66893;44.316;0.092;2023-07-31T09:00:41;24.30;53.18
76785;SHT30;66893;44.316;0.092;2023-07-31T09:03:13;24.39;53.07
76785;SHT30;66893;44.316;0.092;2023-07-31T09:05:42;24.46;52.92
76785;SHT30;66893;44.316;0.092;2023-07-31T09:08:09;24.53;52.83
76785;SHT30;66893;44.316;0.092;2023-07-31T09:10:40;24.57;52.92
76785;SHT30;66893;44.316;0.092;2023-07-31T09:13:06;24.67;52.87
76785;SHT30;66893;44.316;0.092;2023-07-31T09:15:32;24.77;52.72
76785;SHT30;66893;44.316;0.092;2023-07-31T09:18:02;24.83;52.51
76785;SHT30;66893;44.316;0.092;2023-07-31T09:20:28;24.88;52.57
76785;SHT30;66893;44.316;0.092;2023-07-31T09:22:55;24.95;52.50
76785;SHT30;66893;44.316;0.092;2023-07-31T09:25:25;24.97;52.31
76785;SHT30;66893;44.316;0.092;2023-07-31T09:27:59;25.01;52.33
76785;SHT30;66893;44.316;0.092;2023-07-31T09:30:24;25.08;52.27
76785;SHT30;66893;44.316;0.092;2023-07-31T09:32:51;25.11;52.21
76785;SHT30;66893;44.316;0.092;2023-07-31T09:35:33;25.15;52.08
76785;SHT30;66893;44.316;0.092;2023-07-31T09:38:12;25.18;51.91
76785;SHT30;66893;44.316;0.092;2023-07-31T09:40:40;25.22;51.87
76785;SHT30;66893;44.316;0.092;2023-07-31T09:43:07;25.25;51.82
76785;SHT30;66893;44.316;0.092;2023-07-31T09:45:40;25.32;51.72
76785;SHT30;66893;44.316;0.092;2023-07-31T09:48:13;25.42;51.49
76785;SHT30;66893;44.316;0.092;2023-07-31T09:50:43;25.45;51.36
76785;SHT30;66893;44.316;0.092;2023-07-31T09:53:09;25.50;51.39
76785;SHT30;66893;44.316;0.092;2023-07-31T09:55:36;25.59;51.04
76785;SHT30;66893;44.316;0.092;2023-07-31T09:58:09;25.62;51.14
76785;SHT30;66893;44.316;0.092;2023-07-31T10:00:35;25.65;51.15
76785;SHT30;66893;44.316;0.092;2023-07-31T10:03:05;25.66;51.11
76785;SHT30;66893;44.316;0.092;2023-07-31T10:05:35;25.72;50.99
76785;SHT30;66893;44.316;0.092;2023-07-31T10:08:01;25.73;50.91
76785;SHT30;66893;44.316;0.092;2023-07-31T10:10:27;25.76;50.65
76785;SHT30;66893;44.316;0.092;2023-07-31T10:12:53;25.80;50.60
76785;SHT30;66893;44.316;0.092;2023-07-31T10:15:20;25.80;50.62
76785;SHT30;66893;44.316;0.092;2023-07-31T10:17:49;25.83;50.35
76785;SHT30;66893;44.316;0.092;2023-07-31T10:20:16;25.83;50.39
76785;SHT30;66893;44.316;0.092;2023-07-31T10:22:43;25.91;50.36
76785;SHT30;66893;44.316;0.092;2023-07-31T10:25:09;25.94;50.42
76785;SHT30;66893;44.316;0.092;2023-07-31T10:27:36;26.00;50.25
76785;SHT30;66893;44.316;0.092;2023-07-31T10:30:04;26.01;50.20
76785;SHT30;66893;44.316;0.092;2023-07-31T10:32:31;26.10;50.16
76785;SHT30;66893;44.316;0.092;2023-07-31T10:34:58;26.14;50.15
76785;SHT30;66893;44.316;0.092;2023-07-31T10:37:26;26.18;50.12
76785;SHT30;66893;44.316;0.092;2023-07-31T10:42:44;26.27;49.68
76785;SHT30;66893;44.316;0.092;2023-07-31T10:45:33;26.35;49.45
76785;SHT30;66893;44.316;0.092;2023-07-31T10:48:03;26.41;49.50
76785;SHT30;66893;44.316;0.092;2023-07-31T10:50:32;26.45;49.27
76785;SHT30;66893;44.316;0.092;2023-07-31T10:53:00;26.45;49.06
76785;SHT30;66893;44.316;0.092;2023-07-31T10:58:13;26.56;49.20
76785;SHT30;66893;44.316;0.092;2023-07-31T11:00:43;26.66;48.96
76785;SHT30;66893;44.316;0.092;2023-07-31T11:03:17;26.75;49.01
76785;SHT30;66893;44.316;0.092;2023-07-31T11:05:53;26.80;48.85
76785;SHT30;66893;44.316;0.092;2023-07-31T11:08:25;26.87;48.51
76785;SHT30;66893;44.316;0.092;2023-07-31T11:13:33;26.97;48.42
76785;SHT30;66893;44.316;0.092;2023-07-31T11:16:00;27.03;48.23
76785;SHT30;66893;44.316;0.092;2023-07-31T11:18:26;27.11;48.23
76785;SHT30;66893;44.316;0.092;2023-07-31T11:20:53;27.20;48.38
76785;SHT30;66893;44.316;0.092;2023-07-31T11:23:19;27.27;48.21
76785;SHT30;66893;44.316;0.092;2023-07-31T11:25:45;27.35;47.95
76785;SHT30;66893;44.316;0.092;2023-07-31T11:28:15;27.39;47.91
76785;SHT30;66893;44.316;0.092;2023-07-31T11:30:42;27.48;47.81
76785;SHT30;66893;44.316;0.092;2023-07-31T11:33:09;27.52;47.90
76785;SHT30;66893;44.316;0.092;2023-07-31T11:35:55;27.59;47.74
76785;SHT30;66893;44.316;0.092;2023-07-31T11:38:22;27.63;47.63
76785;SHT30;66893;44.316;0.092;2023-07-31T11:40:49;27.69;46.95
76785;SHT30;66893;44.316;0.092;2023-07-31T11:43:15;27.72;46.93
76785;SHT30;66893;44.316;0.092;2023-07-31T11:45:48;27.78;46.75
76785;SHT30;66893;44.316;0.092;2023-07-31T11:50:50;27.94;46.73
76785;SHT30;66893;44.316;0.092;2023-07-31T11:53:28;28.07;46.56
76785;SHT30;66893;44.316;0.092;2023-07-31T11:55:59;28.13;46.55
76785;SHT30;66893;44.316;0.092;2023-07-31T11:58:26;28.17;46.09
76785;SHT30;66893;44.316;0.092;2023-07-31T12:00:52;28.25;46.33
76785;SHT30;66893;44.316;0.092;2023-07-31T12:03:19;28.34;46.24
76785;SHT30;66893;44.316;0.092;2023-07-31T12:05:47;28.43;46.15
76785;SHT30;66893;44.316;0.092;2023-07-31T12:08:12;28.49;45.83
76785;SHT30;66893;44.316;0.092;2023-07-31T12:10:38;28.55;45.82
76785;SHT30;66893;44.316;0.092;2023-07-31T12:13:20;28.66;45.80
76785;SHT30;66893;44.316;0.092;2023-07-31T12:15:46;28.76;45.48
76785;SHT30;66893;44.316;0.092;2023-07-31T12:18:13;28.83;45.66
76785;SHT30;66893;44.316;0.092;2023-07-31T12:20:43;28.90;45.46
76785;SHT30;66893;44.316;0.092;2023-07-31T12:23:29;28.98;45.41
76785;SHT30;66893;44.316;0.092;2023-07-31T12:26:08;29.02;45.34
76785;SHT30;66893;44.316;0.092;2023-07-31T12:28:37;29.13;45.35
76785;SHT30;66893;44.316;0.092;2023-07-31T12:31:04;29.23;45.38
76785;SHT30;66893;44.316;0.092;2023-07-31T12:33:34;29.33;45.05
76785;SHT30;66893;44.316;0.092;2023-07-31T12:36:08;29.34;44.94
76785;SHT30;66893;44.316;0.092;2023-07-31T12:38:34;29.44;44.78
76785;SHT30;66893;44.316;0.092;2023-07-31T12:40:59;29.50;44.55
76785;SHT30;66893;44.316;0.092;2023-07-31T12:43:25;29.57;44.52
76785;SHT30;66893;44.316;0.092;2023-07-31T12:45:51;29.59;44.40
76785;SHT30;66893;44.316;0.092;2023-07-31T12:48:16;29.68;44.42
76785;SHT30;66893;44.316;0.092;2023-07-31T12:50:42;29.74;44.59
76785;SHT30;66893;44.316;0.092;2023-07-31T12:53:07;29.81;44.77
76785;SHT30;66893;44.316;0.092;2023-07-31T12:55:33;29.88;44.85
76785;SHT30;66893;44.316;0.092;2023-07-31T12:58:00;29.90;44.87
76785;SHT30;66893;44.316;0.092;2023-07-31T13:00:26;29.95;45.02
76785;SHT30;66893;44.316;0.092;2023-07-31T13:02:51;30.05;45.16
76785;SHT30;66893;44.316;0.092;2023-07-31T13:05:17;30.08;45.11
76785;SHT30;66893;44.316;0.092;2023-07-31T13:07:44;30.13;45.26
76785;SHT30;66893;44.316;0.092;2023-07-31T13:10:11;30.20;45.26
76785;SHT30;66893;44.316;0.092;2023-07-31T13:12:37;30.24;45.31
76785;SHT30;66893;44.316;0.092;2023-07-31T13:15:06;30.30;45.39
76785;SHT30;66893;44.316;0.092;2023-07-31T13:17:32;30.36;45.33
76785;SHT30;66893;44.316;0.092;2023-07-31T13:19:58;30.41;45.41
76785;SHT30;66893;44.316;0.092;2023-07-31T13:22:24;30.45;45.40
76785;SHT30;66893;44.316;0.092;2023-07-31T13:24:50;30.49;45.43
76785;SHT30;66893;44.316;0.092;2023-07-31T13:27:15;30.58;45.57
76785;SHT30;66893;44.316;0.092;2023-07-31T13:29:49;30.61;45.37
76785;SHT30;66893;44.316;0.092;2023-07-31T13:32:16;30.61;44.99
76785;SHT30;66893;44.316;0.092;2023-07-31T13:34:42;30.54;44.86
76785;SHT30;66893;44.316;0.092;2023-07-31T13:37:07;30.45;44.79
76785;SHT30;66893;44.316;0.092;2023-07-31T13:39:33;30.40;44.75
76785;SHT30;66893;44.316;0.092;2023-07-31T13:41:59;30.38;44.78
76785;SHT30;66893;44.316;0.092;2023-07-31T13:44:25;30.30;44.77
76785;SHT30;66893;44.316;0.092;2023-07-31T13:46:51;30.30;44.75
76785;SHT30;66893;44.316;0.092;2023-07-31T13:49:16;30.27;44.72
76785;SHT30;66893;44.316;0.092;2023-07-31T13:51:41;30.21;44.74
76785;SHT30;66893;44.316;0.092;2023-07-31T13:54:07;30.21;44.70
76785;SHT30;66893;44.316;0.092;2023-07-31T13:56:32;30.19;44.71
76785;SHT30;66893;44.316;0.092;2023-07-31T13:58:58;30.20;44.71
76785;SHT30;66893;44.316;0.092;2023-07-31T14:01:25;30.17;44.72
76785;SHT30;66893;44.316;0.092;2023-07-31T14:03:51;30.16;44.99
76785;SHT30;66893;44.316;0.092;2023-07-31T14:06:16;30.14;45.11
76785;SHT30;66893;44.316;0.092;2023-07-31T14:08:42;30.14;45.15
76785;SHT30;66893;44.316;0.092;2023-07-31T14:11:07;30.14;45.14
76785;SHT30;66893;44.316;0.092;2023-07-31T14:13:32;30.16;45.23
76785;SHT30;66893;44.316;0.092;2023-07-31T14:15:58;30.17;45.36
76785;SHT30;66893;44.316;0.092;2023-07-31T14:18:23;30.24;45.11
76785;SHT30;66893;44.316;0.092;2023-07-31T14:20:49;30.31;44.91
76785;SHT30;66893;44.316;0.092;2023-07-31T14:23:14;30.40;44.48
76785;SHT30;66893;44.316;0.092;2023-07-31T14:25:41;30.53;44.18
76785;SHT30;66893;44.316;0.092;2023-07-31T14:28:06;30.63;44.26
76785;SHT30;66893;44.316;0.092;2023-07-31T14:30:32;30.75;44.14
76785;SHT30;66893;44.316;0.092;2023-07-31T14:32:57;30.86;43.96
76785;SHT30;66893;44.316;0.092;2023-07-31T14:35:23;30.99;43.87
76785;SHT30;66893;44.316;0.092;2023-07-31T14:37:48;31.08;43.60
76785;SHT30;66893;44.316;0.092;2023-07-31T14:40:13;31.13;43.44
76785;SHT30;66893;44.316;0.092;2023-07-31T14:42:39;31.23;43.33
76785;SHT30;66893;44.316;0.092;2023-07-31T14:45:06;31.33;43.19
76785;SHT30;66893;44.316;0.092;2023-07-31T14:47:32;31.41;43.13
76785;SHT30;66893;44.316;0.092;2023-07-31T14:49:58;31.51;43.18
76785;SHT30;66893;44.316;0.092;2023-07-31T14:52:24;31.58;42.91
76785;SHT30;66893;44.316;0.092;2023-07-31T14:54:50;31.68;42.95
76785;SHT30;66893;44.316;0.092;2023-07-31T14:57:15;31.75;43.28
76785;SHT30;66893;44.316;0.092;2023-07-31T14:59:41;31.85;43.32
76785;SHT30;66893;44.316;0.092;2023-07-31T15:02:08;31.91;43.22
76785;SHT30;66893;44.316;0.092;2023-07-31T15:04:34;31.98;43.23
76785;SHT30;66893;44.316;0.092;2023-07-31T15:06:59;32.06;43.40
76785;SHT30;66893;44.316;0.092;2023-07-31T15:09:25;32.11;43.39
76785;SHT30;66893;44.316;0.092;2023-07-31T15:11:50;32.18;43.49
76785;SHT30;66893;44.316;0.092;2023-07-31T15:14:16;32.23;43.66
76785;SHT30;66893;44.316;0.092;2023-07-31T15:16:41;32.30;43.72
76785;SHT30;66893;44.316;0.092;2023-07-31T15:19:07;32.30;43.78
76785;SHT30;66893;44.316;0.092;2023-07-31T15:21:32;32.36;43.83
76785;SHT30;66893;44.316;0.092;2023-07-31T15:23:57;32.39;43.89
76785;SHT30;66893;44.316;0.092;2023-07-31T15:26:23;32.40;43.98
76785;SHT30;66893;44.316;0.092;2023-07-31T15:29:00;32.41;44.02
76785;SHT30;66893;44.316;0.092;2023-07-31T15:31:26;32.44;44.05
76785;SHT30;66893;44.316;0.092;2023-07-31T15:33:51;32.50;44.00
76785;SHT30;66893;44.316;0.092;2023-07-31T15:36:16;32.52;44.09
76785;SHT30;66893;44.316;0.092;2023-07-31T15:38:42;32.60;44.10
76785;SHT30;66893;44.316;0.092;2023-07-31T15:41:08;32.61;44.16